createdAt,value
2018-05-09T00:00:55.015Z,0.00
2018-05-09T00:01:55.196Z,0.00
2018-05-09T00:02:55.025Z,0.00
2018-05-09T00:03:55.018Z,0.00
2018-05-09T00:04:55.032Z,0.00
2018-05-09T00:05:55.032Z,0.00
2018-05-09T00:06:55.033Z,0.00
2018-05-09T00:07:55.049Z,0.00
2018-05-09T00:08:55.952Z,0.00
2018-05-09T00:09:55.054Z,0.00
2018-05-09T00:10:55.063Z,0.00
2018-05-09T00:11:55.134Z,0.00
2018-05-09T00:12:55.079Z,0.00
2018-05-09T00:13:55.074Z,0.00
2018-05-09T00:14:55.079Z,0.00
2018-05-09T00:15:55.171Z,0.00
2018-05-09T00:16:55.089Z,0.00
2018-05-09T00:17:55.106Z,0.00
2018-05-09T00:18:55.099Z,0.00
2018-05-09T00:19:55.103Z,0.00
2018-05-09T00:20:56.622Z,0.00
2018-05-09T00:21:56.698Z,0.00
2018-05-09T00:22:56.687Z,0.00
2018-05-09T00:23:55.118Z,0.00
2018-05-09T00:24:55.125Z,0.00
2018-05-09T00:25:55.124Z,0.00
2018-05-09T00:26:55.136Z,0.00
2018-05-09T00:27:55.131Z,0.00
2018-05-09T00:28:55.140Z,0.00
2018-05-09T00:29:55.216Z,0.00
2018-05-09T00:30:55.147Z,0.00
2018-05-09T00:31:55.159Z,0.00
2018-05-09T00:32:55.163Z,0.00
2018-05-09T00:33:55.163Z,0.00
2018-05-09T00:34:55.175Z,0.00
2018-05-09T00:35:55.172Z,0.00
2018-05-09T00:36:55.182Z,0.00
2018-05-09T00:37:55.193Z,0.00
2018-05-09T00:38:55.196Z,0.00
2018-05-09T00:39:55.193Z,0.00
2018-05-09T00:40:55.211Z,0.00
2018-05-09T00:41:55.211Z,0.00
2018-05-09T00:42:55.209Z,0.00
2018-05-09T00:43:55.221Z,0.00
2018-05-09T00:44:55.223Z,0.00
2018-05-09T00:45:55.226Z,0.00
2018-05-09T00:46:55.231Z,0.00
2018-05-09T00:47:55.234Z,0.00
2018-05-09T00:48:55.243Z,0.00
2018-05-09T00:49:55.250Z,0.00
2018-05-09T00:50:55.258Z,0.00
2018-05-09T00:51:55.256Z,0.00
2018-05-09T00:52:55.255Z,0.00
2018-05-09T00:53:55.268Z,0.00
2018-05-09T00:54:55.268Z,0.00
2018-05-09T00:55:55.280Z,0.00
2018-05-09T00:56:55.282Z,0.00
2018-05-09T00:57:55.279Z,0.00
2018-05-09T00:58:55.291Z,0.00
2018-05-09T00:59:55.291Z,0.00
2018-05-09T01:00:55.299Z,0.00
2018-05-09T01:01:55.298Z,0.00
2018-05-09T01:02:55.306Z,0.00
2018-05-09T01:03:55.313Z,0.00
2018-05-09T01:04:55.317Z,0.00
2018-05-09T01:05:55.318Z,0.00
2018-05-09T01:06:55.331Z,0.00
2018-05-09T01:07:55.347Z,0.00
2018-05-09T01:08:55.342Z,0.00
2018-05-09T01:09:55.335Z,0.00
2018-05-09T01:10:55.341Z,0.00
2018-05-09T01:11:55.350Z,0.00
2018-05-09T01:12:55.356Z,0.00
2018-05-09T01:13:56.970Z,0.00
2018-05-09T01:14:55.361Z,0.00
2018-05-09T01:15:55.365Z,0.00
2018-05-09T01:16:55.370Z,0.00
2018-05-09T01:17:55.379Z,0.00
2018-05-09T01:18:55.376Z,0.00
2018-05-09T01:19:55.385Z,0.00
2018-05-09T01:20:55.386Z,0.00
2018-05-09T01:21:55.394Z,0.00
2018-05-09T01:22:55.392Z,0.00
2018-05-09T01:23:55.397Z,0.00
2018-05-09T01:24:55.405Z,0.00
2018-05-09T01:25:55.405Z,0.00
2018-05-09T01:26:55.415Z,0.00
2018-05-09T01:27:55.421Z,0.00
2018-05-09T01:28:55.420Z,0.00
2018-05-09T01:29:55.427Z,0.00
2018-05-09T01:30:55.434Z,0.00
2018-05-09T01:31:55.436Z,0.00
2018-05-09T01:32:55.442Z,0.00
2018-05-09T01:33:55.444Z,0.00
2018-05-09T01:34:55.454Z,0.00
2018-05-09T01:35:55.461Z,0.00
2018-05-09T01:36:55.458Z,0.00
2018-05-09T01:37:55.464Z,0.00
2018-05-09T01:38:55.467Z,0.00
2018-05-09T01:39:55.470Z,0.00
2018-05-09T01:40:55.482Z,0.00
2018-05-09T01:41:55.480Z,0.00
2018-05-09T01:42:55.484Z,0.00
2018-05-09T01:43:55.489Z,0.00
2018-05-09T01:44:55.496Z,0.00
2018-05-09T01:45:55.496Z,0.00
2018-05-09T01:46:55.504Z,0.00
2018-05-09T01:47:55.510Z,0.00
2018-05-09T01:48:55.515Z,0.00
2018-05-09T01:49:55.511Z,0.00
2018-05-09T01:50:55.518Z,0.00
2018-05-09T01:51:55.520Z,0.00
2018-05-09T01:52:55.527Z,0.00
2018-05-09T01:53:55.532Z,0.00
2018-05-09T01:54:55.602Z,0.00
2018-05-09T01:55:55.546Z,0.00
2018-05-09T01:56:55.543Z,0.00
2018-05-09T01:57:55.558Z,0.00
2018-05-09T01:58:55.557Z,0.00
2018-05-09T01:59:55.565Z,0.00
2018-05-09T02:00:55.565Z,0.00
2018-05-09T02:01:55.561Z,0.00
2018-05-09T02:02:55.573Z,0.00
2018-05-09T02:03:55.569Z,0.00
2018-05-09T02:04:55.581Z,0.00
2018-05-09T02:05:55.575Z,0.00
2018-05-09T02:06:55.585Z,0.00
2018-05-09T02:07:55.590Z,0.00
2018-05-09T02:08:55.597Z,0.00
2018-05-09T02:09:55.604Z,0.00
2018-05-09T02:10:55.610Z,0.00
2018-05-09T02:11:55.614Z,0.00
2018-05-09T02:12:55.612Z,0.00
2018-05-09T02:13:55.614Z,0.00
2018-05-09T02:14:55.622Z,0.00
2018-05-09T02:15:55.616Z,0.00
2018-05-09T02:16:55.627Z,0.00
2018-05-09T02:17:55.629Z,0.00
2018-05-09T02:18:55.632Z,0.00
2018-05-09T02:19:55.645Z,0.00
2018-05-09T02:20:55.640Z,0.00
2018-05-09T02:21:55.652Z,0.00
2018-05-09T02:22:55.675Z,0.00
2018-05-09T02:23:55.654Z,0.00
2018-05-09T02:24:55.656Z,0.00
2018-05-09T02:25:55.713Z,0.00
2018-05-09T02:26:55.681Z,0.00
2018-05-09T02:27:55.669Z,0.00
2018-05-09T02:28:55.682Z,0.00
2018-05-09T02:29:55.681Z,0.00
2018-05-09T02:30:55.700Z,0.00
2018-05-09T02:31:55.695Z,0.00
2018-05-09T02:32:55.693Z,0.00
2018-05-09T02:33:55.702Z,0.00
2018-05-09T02:34:55.710Z,0.00
2018-05-09T02:35:55.702Z,0.00
2018-05-09T02:36:55.710Z,0.00
2018-05-09T02:37:55.713Z,0.00
2018-05-09T02:38:55.720Z,0.00
2018-05-09T02:39:55.716Z,0.00
2018-05-09T02:40:55.719Z,0.00
2018-05-09T02:41:55.728Z,0.00
2018-05-09T02:42:55.728Z,0.00
2018-05-09T02:43:55.739Z,0.00
2018-05-09T02:44:55.737Z,0.00
2018-05-09T02:45:55.745Z,0.00
2018-05-09T02:46:55.746Z,0.00
2018-05-09T02:47:55.755Z,0.00
2018-05-09T02:48:55.758Z,0.00
2018-05-09T02:49:55.858Z,0.00
2018-05-09T02:50:55.781Z,0.00
2018-05-09T02:51:55.771Z,0.00
2018-05-09T02:52:55.798Z,0.00
2018-05-09T02:53:55.777Z,0.00
2018-05-09T02:54:55.872Z,0.00
2018-05-09T02:55:55.784Z,0.00
2018-05-09T02:56:55.807Z,4.00
2018-05-09T02:57:55.817Z,4.00
2018-05-09T02:58:55.799Z,4.00
2018-05-09T02:59:55.802Z,4.00
2018-05-09T03:00:55.823Z,4.00
2018-05-09T03:01:55.807Z,4.00
2018-05-09T03:02:55.813Z,4.00
2018-05-09T03:03:55.815Z,0.00
2018-05-09T03:04:55.825Z,0.00
2018-05-09T03:05:55.824Z,0.00
2018-05-09T03:06:55.836Z,0.00
2018-05-09T03:07:55.829Z,4.00
2018-05-09T03:08:55.839Z,4.00
2018-05-09T03:09:55.842Z,4.00
2018-05-09T03:10:55.850Z,0.00
2018-05-09T03:11:55.850Z,4.00
2018-05-09T03:12:55.848Z,4.00
2018-05-09T03:13:55.853Z,4.00
2018-05-09T03:14:55.863Z,4.00
2018-05-09T03:15:55.865Z,4.00
2018-05-09T03:16:55.889Z,8.00
2018-05-09T03:17:55.872Z,4.00
2018-05-09T03:18:55.878Z,4.00
2018-05-09T03:19:55.880Z,8.00
2018-05-09T03:20:55.914Z,12.00
2018-05-09T03:21:55.913Z,12.00
2018-05-09T03:22:55.888Z,12.00
2018-05-09T03:23:55.889Z,12.00
2018-05-09T03:24:55.890Z,16.00
2018-05-09T03:25:55.898Z,16.00
2018-05-09T03:26:55.911Z,16.00
2018-05-09T03:27:55.915Z,24.00
2018-05-09T03:28:55.910Z,24.00
2018-05-09T03:29:55.916Z,24.00
2018-05-09T03:30:55.916Z,32.00
2018-05-09T03:31:55.924Z,32.00
2018-05-09T03:32:55.927Z,40.00
2018-05-09T03:33:55.929Z,44.00
2018-05-09T03:34:55.928Z,48.00
2018-05-09T03:35:55.940Z,52.00
2018-05-09T03:36:55.941Z,60.00
2018-05-09T03:37:55.949Z,64.00
2018-05-09T03:38:55.955Z,72.00
2018-05-09T03:39:55.951Z,80.00
2018-05-09T03:40:56.505Z,88.00
2018-05-09T03:41:55.962Z,96.00
2018-05-09T03:42:55.963Z,104.00
2018-05-09T03:43:55.967Z,116.00
2018-05-09T03:44:55.969Z,128.00
2018-05-09T03:45:55.972Z,136.00
2018-05-09T03:46:55.975Z,148.00
2018-05-09T03:47:55.987Z,160.00
2018-05-09T03:48:55.993Z,172.00
2018-05-09T03:49:55.991Z,184.00
2018-05-09T03:50:56.000Z,200.00
2018-05-09T03:51:55.993Z,212.00
2018-05-09T03:52:56.000Z,232.00
2018-05-09T03:53:56.010Z,248.00
2018-05-09T03:54:56.004Z,264.00
2018-05-09T03:55:56.020Z,284.00
2018-05-09T03:56:56.018Z,300.00
2018-05-09T03:57:56.022Z,324.00
2018-05-09T03:58:56.024Z,348.00
2018-05-09T03:59:56.031Z,368.00
2018-05-09T04:00:56.040Z,392.00
2018-05-09T04:01:56.038Z,412.00
2018-05-09T04:02:56.424Z,436.00
2018-05-09T04:03:57.188Z,464.00
2018-05-09T04:04:56.058Z,488.00
2018-05-09T04:05:56.059Z,512.00
2018-05-09T04:06:56.057Z,540.00
2018-05-09T04:07:56.076Z,568.00
2018-05-09T04:08:56.063Z,600.00
2018-05-09T04:09:56.070Z,628.00
2018-05-09T04:10:56.078Z,664.00
2018-05-09T04:11:56.086Z,724.00
2018-05-09T04:12:56.093Z,724.00
2018-05-09T04:13:56.086Z,752.00
2018-05-09T04:14:56.160Z,780.00
2018-05-09T04:15:56.096Z,808.00
2018-05-09T04:16:56.094Z,840.00
2018-05-09T04:17:56.096Z,868.00
2018-05-09T04:18:56.097Z,900.00
2018-05-09T04:19:56.108Z,932.00
2018-05-09T04:20:56.171Z,964.00
2018-05-09T04:21:56.106Z,992.00
2018-05-09T04:22:56.113Z,1016.00
2018-05-09T04:23:56.120Z,1052.00
2018-05-09T04:24:56.131Z,1080.00
2018-05-09T04:25:56.126Z,1116.00
2018-05-09T04:26:56.133Z,1140.00
2018-05-09T04:27:56.140Z,1172.00
2018-05-09T04:28:56.152Z,1204.00
2018-05-09T04:29:56.140Z,1240.00
2018-05-09T04:30:56.147Z,1268.00
2018-05-09T04:31:56.154Z,1296.00
2018-05-09T04:32:56.152Z,1328.00
2018-05-09T04:33:56.152Z,1364.00
2018-05-09T04:34:56.158Z,1392.00
2018-05-09T04:35:56.166Z,1428.00
2018-05-09T04:36:56.172Z,1456.00
2018-05-09T04:37:56.180Z,1488.00
2018-05-09T04:38:56.176Z,1524.00
2018-05-09T04:39:56.182Z,1548.00
2018-05-09T04:40:56.190Z,1588.00
2018-05-09T04:41:56.258Z,1616.00
2018-05-09T04:42:56.192Z,1648.00
2018-05-09T04:43:56.198Z,1680.00
2018-05-09T04:44:56.203Z,1712.00
2018-05-09T04:45:56.204Z,1748.00
2018-05-09T04:46:56.204Z,1776.00
2018-05-09T04:47:56.215Z,1812.00
2018-05-09T04:48:56.224Z,1840.00
2018-05-09T04:49:56.215Z,1872.00
2018-05-09T04:50:56.229Z,1904.00
2018-05-09T04:51:56.225Z,1936.00
2018-05-09T04:52:56.229Z,1972.00
2018-05-09T04:53:56.235Z,2004.00
2018-05-09T04:54:56.280Z,2040.00
2018-05-09T04:55:56.242Z,2068.00
2018-05-09T04:56:56.255Z,2108.00
2018-05-09T04:57:56.253Z,2132.00
2018-05-09T04:58:56.279Z,2164.00
2018-05-09T04:59:56.263Z,2196.00
2018-05-09T05:00:56.286Z,2228.00
2018-05-09T05:01:56.279Z,2260.00
2018-05-09T05:02:56.275Z,2296.00
2018-05-09T05:03:56.273Z,2328.00
2018-05-09T05:04:56.345Z,2356.00
2018-05-09T05:05:56.319Z,2400.00
2018-05-09T05:06:56.513Z,2432.00
2018-05-09T05:07:56.293Z,2464.00
2018-05-09T05:08:56.304Z,2524.00
2018-05-09T05:09:56.302Z,2568.00
2018-05-09T05:10:56.308Z,2576.00
2018-05-09T05:11:56.331Z,2608.00
2018-05-09T05:12:56.315Z,2668.00
2018-05-09T05:13:56.326Z,2688.00
2018-05-09T05:14:56.411Z,2752.00
2018-05-09T05:15:56.339Z,2768.00
2018-05-09T05:16:56.332Z,2796.00
2018-05-09T05:17:56.344Z,2852.00
2018-05-09T05:18:56.339Z,2884.00
2018-05-09T05:19:56.350Z,2932.00
2018-05-09T05:20:56.355Z,2972.00
2018-05-09T05:21:56.350Z,3024.00
2018-05-09T05:22:56.370Z,3072.00
2018-05-09T05:23:56.363Z,3136.00
2018-05-09T05:24:56.376Z,3196.00
2018-05-09T05:25:56.367Z,3260.00
2018-05-09T05:26:56.379Z,3332.00
2018-05-09T05:27:56.386Z,3440.00
2018-05-09T05:28:56.391Z,3552.00
2018-05-09T05:29:56.385Z,7684.00
2018-05-09T05:30:56.399Z,15040.00
2018-05-09T05:31:56.399Z,20000.00
2018-05-09T05:32:56.413Z,20992.00
2018-05-09T05:33:56.412Z,21664.00
2018-05-09T05:34:56.420Z,22400.00
2018-05-09T05:35:56.420Z,22848.00
2018-05-09T05:36:56.428Z,23616.00
2018-05-09T05:37:56.439Z,24192.00
2018-05-09T05:38:56.550Z,24640.00
2018-05-09T05:39:56.453Z,24896.00
2018-05-09T05:40:56.455Z,25440.00
2018-05-09T05:41:56.462Z,25856.00
2018-05-09T05:42:56.474Z,25760.00
2018-05-09T05:43:56.492Z,26464.00
2018-05-09T05:44:56.515Z,27008.00
2018-05-09T05:45:56.495Z,27008.00
2018-05-09T05:46:56.510Z,27136.00
2018-05-09T05:47:56.516Z,27168.00
2018-05-09T05:48:56.526Z,26720.00
2018-05-09T05:49:56.531Z,26496.00
2018-05-09T05:50:56.547Z,26464.00
2018-05-09T05:51:56.608Z,26912.00
2018-05-09T05:52:56.626Z,27424.00
2018-05-09T05:53:56.578Z,27744.00
2018-05-09T05:54:56.748Z,28352.00
2018-05-09T05:55:56.678Z,28192.00
2018-05-09T05:56:56.646Z,27584.00
2018-05-09T05:57:56.634Z,27296.00
2018-05-09T05:58:56.645Z,27616.00
2018-05-09T05:59:56.648Z,28736.00
2018-05-09T06:00:56.662Z,29568.00
2018-05-09T06:01:56.679Z,28800.00
2018-05-09T06:02:56.697Z,29216.00
2018-05-09T06:03:56.699Z,30080.00
2018-05-09T06:04:56.716Z,30720.00
2018-05-09T06:05:56.738Z,31040.00
2018-05-09T06:06:56.740Z,31904.00
2018-05-09T06:07:56.802Z,32224.00
2018-05-09T06:08:56.767Z,31840.00
2018-05-09T06:09:56.790Z,30624.00
2018-05-09T06:10:56.809Z,29696.00
2018-05-09T06:11:56.813Z,28512.00
2018-05-09T06:12:56.849Z,27008.00
2018-05-09T06:13:56.845Z,26336.00
2018-05-09T06:14:56.893Z,27328.00
2018-05-09T06:15:56.892Z,28800.00
2018-05-09T06:16:56.989Z,29888.00
2018-05-09T06:17:56.905Z,30592.00
2018-05-09T06:18:56.927Z,30368.00
2018-05-09T06:19:56.940Z,30688.00
2018-05-09T06:20:56.952Z,30752.00
2018-05-09T06:21:56.979Z,30432.00
2018-05-09T06:22:56.989Z,30336.00
2018-05-09T06:23:57.109Z,30528.00
2018-05-09T06:24:57.031Z,30432.00
2018-05-09T06:25:57.049Z,29984.00
2018-05-09T06:26:57.065Z,30368.00
2018-05-09T06:27:57.070Z,30816.00
2018-05-09T06:28:57.096Z,30752.00
2018-05-09T06:29:57.111Z,31200.00
2018-05-09T06:30:57.195Z,31712.00
2018-05-09T06:31:57.153Z,31744.00
2018-05-09T06:32:57.162Z,31584.00
2018-05-09T06:33:57.192Z,30592.00
2018-05-09T06:34:57.199Z,30112.00
2018-05-09T06:35:58.065Z,31072.00
2018-05-09T06:36:57.399Z,32480.00
2018-05-09T06:37:57.272Z,32320.00
2018-05-09T06:38:57.282Z,32096.00
2018-05-09T06:39:57.336Z,31296.00
2018-05-09T06:40:57.315Z,30944.00
2018-05-09T06:41:57.376Z,30752.00
2018-05-09T06:42:57.384Z,30816.00
2018-05-09T06:43:57.367Z,31584.00
2018-05-09T06:44:57.381Z,32256.00
2018-05-09T06:45:57.403Z,32480.00
2018-05-09T06:46:57.426Z,32512.00
2018-05-09T06:47:57.433Z,32256.00
2018-05-09T06:48:57.451Z,31904.00
2018-05-09T06:49:57.484Z,31136.00
2018-05-09T06:50:57.494Z,30528.00
2018-05-09T06:51:57.507Z,30464.00
2018-05-09T06:52:57.586Z,30240.00
2018-05-09T06:53:57.569Z,30592.00
2018-05-09T06:54:57.572Z,31072.00
2018-05-09T06:55:57.691Z,31520.00
2018-05-09T06:56:57.631Z,31872.00
2018-05-09T06:57:57.629Z,32064.00
2018-05-09T06:58:57.700Z,31904.00
2018-05-09T06:59:57.731Z,31488.00
2018-05-09T07:00:57.690Z,31136.00
2018-05-09T07:01:57.725Z,30816.00
2018-05-09T07:02:57.721Z,30720.00
2018-05-09T07:03:57.750Z,30912.00
2018-05-09T07:04:57.774Z,30176.00
2018-05-09T07:05:57.782Z,29568.00
2018-05-09T07:06:57.810Z,28800.00
2018-05-09T07:07:57.841Z,29024.00
2018-05-09T07:08:57.854Z,29888.00
2018-05-09T07:09:57.872Z,31168.00
2018-05-09T07:10:57.897Z,32256.00
2018-05-09T07:11:57.912Z,32640.00
2018-05-09T07:12:57.927Z,32480.00
2018-05-09T07:13:57.950Z,32736.00
2018-05-09T07:14:57.975Z,32352.00
2018-05-09T07:15:58.047Z,32128.00
2018-05-09T07:16:58.126Z,32032.00
2018-05-09T07:17:58.042Z,32384.00
2018-05-09T07:18:58.059Z,32704.00
2018-05-09T07:19:59.006Z,33184.00
2018-05-09T07:20:58.168Z,33440.00
2018-05-09T07:21:58.172Z,33600.00
2018-05-09T07:22:58.174Z,32544.00
2018-05-09T07:23:58.172Z,31872.00
2018-05-09T07:24:58.195Z,31392.00
2018-05-09T07:25:58.213Z,31392.00
2018-05-09T07:26:58.237Z,31744.00
2018-05-09T07:27:58.250Z,31904.00
2018-05-09T07:28:58.272Z,31776.00
2018-05-09T07:29:58.302Z,32352.00
2018-05-09T07:30:58.324Z,32192.00
2018-05-09T07:31:58.341Z,33216.00
2018-05-09T07:32:58.362Z,32416.00
2018-05-09T07:33:58.385Z,31648.00
2018-05-09T07:34:58.406Z,30848.00
2018-05-09T07:35:58.492Z,30720.00
2018-05-09T07:36:58.452Z,30976.00
2018-05-09T07:37:58.495Z,30656.00
2018-05-09T07:38:58.539Z,30720.00
2018-05-09T07:39:58.528Z,30784.00
2018-05-09T07:40:58.547Z,31456.00
2018-05-09T07:41:58.559Z,32032.00
2018-05-09T07:42:58.584Z,32704.00
2018-05-09T07:43:58.602Z,32480.00
2018-05-09T07:44:58.634Z,32576.00
2018-05-09T07:45:58.663Z,32416.00
2018-05-09T07:46:58.671Z,32352.00
2018-05-09T07:47:58.727Z,32288.00
2018-05-09T07:48:58.729Z,32288.00
2018-05-09T07:49:58.743Z,32640.00
2018-05-09T07:50:58.770Z,31488.00
2018-05-09T07:51:58.791Z,22272.00
2018-05-09T07:52:58.816Z,21824.00
2018-05-09T07:53:58.837Z,25728.00
2018-05-09T07:54:58.858Z,29376.00
2018-05-09T07:55:58.879Z,30976.00
2018-05-09T07:56:58.899Z,32544.00
2018-05-09T07:57:58.927Z,32256.00
2018-05-09T07:58:58.950Z,31744.00
2018-05-09T07:59:58.977Z,32000.00
2018-05-09T08:00:59.599Z,31648.00
2018-05-09T08:01:59.106Z,30656.00
2018-05-09T08:02:59.038Z,30784.00
2018-05-09T08:03:59.065Z,30368.00
2018-05-09T08:04:59.081Z,30112.00
2018-05-09T08:05:59.181Z,30080.00
2018-05-09T08:06:59.129Z,29888.00
2018-05-09T08:07:59.150Z,29664.00
2018-05-09T08:08:59.176Z,29088.00
2018-05-09T08:09:59.205Z,28672.00
2018-05-09T08:10:59.232Z,28544.00
2018-05-09T08:11:59.323Z,28832.00
2018-05-09T08:12:59.336Z,28864.00
2018-05-09T08:13:59.403Z,28736.00
2018-05-09T08:14:59.371Z,28992.00
2018-05-09T08:15:59.418Z,28608.00
2018-05-09T08:16:59.415Z,28640.00
2018-05-09T08:17:59.394Z,28224.00
2018-05-09T08:18:59.427Z,27808.00
2018-05-09T08:19:59.498Z,27552.00
2018-05-09T08:20:59.493Z,26976.00
2018-05-09T08:21:59.521Z,26144.00
2018-05-09T08:22:59.545Z,25632.00
2018-05-09T08:23:59.611Z,26272.00
2018-05-09T08:24:59.565Z,27200.00
2018-05-09T08:25:59.589Z,27104.00
2018-05-09T08:26:59.676Z,26656.00
2018-05-09T08:27:59.653Z,26304.00
2018-05-09T08:28:59.668Z,26208.00
2018-05-09T08:29:59.697Z,26112.00
2018-05-09T08:30:59.711Z,26304.00
2018-05-09T08:31:59.722Z,26496.00
2018-05-09T08:32:59.843Z,26496.00
2018-05-09T08:33:59.774Z,26272.00
2018-05-09T08:34:59.811Z,26144.00
2018-05-09T08:35:59.872Z,25504.00
2018-05-09T08:36:59.870Z,24800.00
2018-05-09T08:37:59.863Z,24800.00
2018-05-09T08:38:59.917Z,24768.00
2018-05-09T08:39:59.922Z,24608.00
2018-05-09T08:40:59.936Z,24544.00
2018-05-09T08:41:59.949Z,24800.00
2018-05-09T08:42:59.989Z,24608.00
2018-05-09T08:44:00.152Z,23552.00
2018-05-09T08:45:00.027Z,22112.00
2018-05-09T08:46:00.048Z,21536.00
2018-05-09T08:47:04.545Z,21536.00
2018-05-09T08:48:00.097Z,21632.00
2018-05-09T08:49:00.125Z,21536.00
2018-05-09T08:50:00.152Z,22016.00
2018-05-09T08:51:00.171Z,21984.00
2018-05-09T08:52:00.227Z,22336.00
2018-05-09T08:53:00.263Z,22240.00
2018-05-09T08:54:00.251Z,21984.00
2018-05-09T08:55:00.265Z,21920.00
2018-05-09T08:56:00.296Z,22048.00
2018-05-09T08:57:00.319Z,21792.00
2018-05-09T08:58:00.343Z,21664.00
2018-05-09T08:59:00.377Z,21696.00
2018-05-09T09:00:00.387Z,21792.00
2018-05-09T09:01:00.424Z,21728.00
2018-05-09T09:02:00.433Z,21632.00
2018-05-09T09:03:00.463Z,21888.00
2018-05-09T09:04:00.490Z,21856.00
2018-05-09T09:05:00.508Z,21568.00
2018-05-09T09:06:00.540Z,21280.00
2018-05-09T09:07:00.561Z,21632.00
2018-05-09T09:08:00.581Z,21344.00
2018-05-09T09:09:00.622Z,21184.00
2018-05-09T09:10:00.626Z,21120.00
2018-05-09T09:11:00.668Z,21120.00
2018-05-09T09:12:00.962Z,21184.00
2018-05-09T09:13:00.799Z,21120.00
2018-05-09T09:14:00.728Z,21056.00
2018-05-09T09:15:00.753Z,20960.00
2018-05-09T09:16:00.798Z,20768.00
2018-05-09T09:17:00.804Z,20480.00
2018-05-09T09:18:00.821Z,20544.00
2018-05-09T09:19:00.858Z,20448.00
2018-05-09T09:20:00.868Z,20384.00
2018-05-09T09:21:00.893Z,20256.00
2018-05-09T09:22:00.937Z,19904.00
2018-05-09T09:23:00.981Z,19296.00
2018-05-09T09:24:00.981Z,19808.00
2018-05-09T09:25:00.998Z,19520.00
2018-05-09T09:26:01.019Z,19168.00
2018-05-09T09:27:01.040Z,18752.00
2018-05-09T09:28:01.080Z,18336.00
2018-05-09T09:29:01.103Z,18624.00
2018-05-09T09:30:01.140Z,18592.00
2018-05-09T09:31:01.138Z,18592.00
2018-05-09T09:32:01.164Z,18528.00
2018-05-09T09:33:01.248Z,18592.00
2018-05-09T09:34:01.232Z,18400.00
2018-05-09T09:35:01.262Z,18880.00
2018-05-09T09:36:03.119Z,18464.00
2018-05-09T09:37:01.282Z,18464.00
2018-05-09T09:38:01.312Z,18592.00
2018-05-09T09:39:01.338Z,18464.00
2018-05-09T09:40:01.369Z,18592.00
2018-05-09T09:41:01.410Z,18496.00
2018-05-09T09:42:01.407Z,18656.00
2018-05-09T09:43:01.461Z,18720.00
2018-05-09T09:44:01.449Z,18464.00
2018-05-09T09:45:01.492Z,18592.00
2018-05-09T09:46:01.512Z,18880.00
2018-05-09T09:47:01.535Z,18624.00
2018-05-09T09:48:01.551Z,18496.00
2018-05-09T09:49:01.581Z,18560.00
2018-05-09T09:50:01.600Z,18688.00
2018-05-09T09:51:01.666Z,18688.00
2018-05-09T09:52:01.654Z,18592.00
2018-05-09T09:53:01.696Z,18592.00
2018-05-09T09:54:01.697Z,18592.00
2018-05-09T09:55:01.726Z,18592.00
2018-05-09T09:56:01.742Z,18592.00
2018-05-09T09:57:01.775Z,18240.00
2018-05-09T09:58:01.785Z,18432.00
2018-05-09T09:59:01.825Z,18400.00
2018-05-09T10:00:01.852Z,18368.00
2018-05-09T10:01:01.862Z,18368.00
2018-05-09T10:02:01.891Z,18304.00
2018-05-09T10:03:01.918Z,18400.00
2018-05-09T10:04:01.938Z,18400.00
2018-05-09T10:05:01.977Z,18336.00
2018-05-09T10:06:01.998Z,18368.00
2018-05-09T10:07:02.011Z,18112.00
2018-05-09T10:08:02.034Z,17920.00
2018-05-09T10:09:02.053Z,17920.00
2018-05-09T10:10:02.092Z,17952.00
2018-05-09T10:11:02.117Z,17920.00
2018-05-09T10:12:02.145Z,17664.00
2018-05-09T10:13:02.155Z,17344.00
2018-05-09T10:14:02.180Z,17504.00
2018-05-09T10:15:02.208Z,17504.00
2018-05-09T10:16:02.243Z,17248.00
2018-05-09T10:17:02.248Z,17216.00
2018-05-09T10:18:02.276Z,17024.00
2018-05-09T10:19:02.292Z,17152.00
2018-05-09T10:20:02.328Z,16864.00
2018-05-09T10:21:02.334Z,16640.00
2018-05-09T10:22:02.364Z,16672.00
2018-05-09T10:23:02.387Z,16608.00
2018-05-09T10:24:02.411Z,16640.00
2018-05-09T10:25:02.452Z,16544.00
2018-05-09T10:26:02.451Z,16480.00
2018-05-09T10:27:02.478Z,16384.00
2018-05-09T10:28:02.512Z,16480.00
2018-05-09T10:29:02.524Z,16448.00
2018-05-09T10:30:02.561Z,16320.00
2018-05-09T10:31:02.567Z,16352.00
2018-05-09T10:32:02.677Z,16320.00
2018-05-09T10:33:02.627Z,16288.00
2018-05-09T10:34:02.652Z,16288.00
2018-05-09T10:35:02.672Z,15772.00
2018-05-09T10:36:02.697Z,15948.00
2018-05-09T10:37:02.717Z,15832.00
2018-05-09T10:38:02.736Z,15824.00
2018-05-09T10:39:02.748Z,15800.00
2018-05-09T10:40:02.827Z,15620.00
2018-05-09T10:41:02.820Z,15620.00
2018-05-09T10:42:02.831Z,15560.00
2018-05-09T10:43:03.572Z,15508.00
2018-05-09T10:44:02.861Z,15892.00
2018-05-09T10:45:02.887Z,15532.00
2018-05-09T10:46:02.911Z,15364.00
2018-05-09T10:47:02.946Z,15140.00
2018-05-09T10:48:02.949Z,14896.00
2018-05-09T10:49:02.987Z,14924.00
2018-05-09T10:50:03.067Z,14792.00
2018-05-09T10:51:03.020Z,14696.00
2018-05-09T10:52:03.038Z,14660.00
2018-05-09T10:53:03.067Z,14572.00
2018-05-09T10:54:03.135Z,14464.00
2018-05-09T10:55:03.131Z,14552.00
2018-05-09T10:56:03.138Z,14496.00
2018-05-09T10:57:03.152Z,14456.00
2018-05-09T10:58:03.174Z,14428.00
2018-05-09T10:59:03.226Z,14400.00
2018-05-09T11:00:03.215Z,14324.00
2018-05-09T11:01:03.405Z,14204.00
2018-05-09T11:02:03.290Z,14012.00
2018-05-09T11:03:03.276Z,13908.00
2018-05-09T11:04:03.299Z,13744.00
2018-05-09T11:05:03.329Z,13704.00
2018-05-09T11:06:03.333Z,11360.00
2018-05-09T11:07:03.363Z,11976.00
2018-05-09T11:08:03.384Z,13728.00
2018-05-09T11:09:03.460Z,13668.00
2018-05-09T11:10:03.437Z,13564.00
2018-05-09T11:11:03.447Z,13272.00
2018-05-09T11:12:03.463Z,13108.00
2018-05-09T11:13:03.483Z,13024.00
2018-05-09T11:14:03.509Z,13116.00
2018-05-09T11:15:03.523Z,12848.00
2018-05-09T11:16:03.559Z,12940.00
2018-05-09T11:17:03.573Z,13048.00
2018-05-09T11:18:03.591Z,13076.00
2018-05-09T11:19:03.609Z,12864.00
2018-05-09T11:20:03.620Z,12964.00
2018-05-09T11:21:03.642Z,12928.00
2018-05-09T11:22:03.658Z,12972.00
2018-05-09T11:23:03.727Z,12928.00
2018-05-09T11:24:03.734Z,12788.00
2018-05-09T11:25:03.741Z,12832.00
2018-05-09T11:26:03.754Z,12784.00
2018-05-09T11:27:03.775Z,12872.00
2018-05-09T11:28:03.784Z,12880.00
2018-05-09T11:29:03.805Z,13036.00
2018-05-09T11:30:03.826Z,12952.00
2018-05-09T11:31:03.848Z,12908.00
2018-05-09T11:32:04.591Z,12800.00
2018-05-09T11:33:03.928Z,12800.00
2018-05-09T11:34:03.903Z,12656.00
2018-05-09T11:35:03.926Z,12676.00
2018-05-09T11:36:03.935Z,12628.00
2018-05-09T11:37:03.958Z,12548.00
2018-05-09T11:38:03.966Z,12576.00
2018-05-09T11:39:03.996Z,12572.00
2018-05-09T11:40:04.003Z,12588.00
2018-05-09T11:41:04.044Z,12592.00
2018-05-09T11:42:04.054Z,12684.00
2018-05-09T11:43:04.080Z,12416.00
2018-05-09T11:44:04.093Z,12560.00
2018-05-09T11:45:04.100Z,12584.00
2018-05-09T11:46:04.123Z,12408.00
2018-05-09T11:47:04.129Z,12344.00
2018-05-09T11:48:04.184Z,12228.00
2018-05-09T11:49:04.176Z,12236.00
2018-05-09T11:50:04.185Z,11976.00
2018-05-09T11:51:04.215Z,10308.00
2018-05-09T11:52:04.240Z,7920.00
2018-05-09T11:53:04.341Z,6616.00
2018-05-09T11:54:04.258Z,6580.00
2018-05-09T11:55:04.273Z,6508.00
2018-05-09T11:56:04.297Z,4608.00
2018-05-09T11:57:04.303Z,3980.00
2018-05-09T11:58:04.323Z,4260.00
2018-05-09T11:59:04.345Z,6364.00
2018-05-09T12:00:04.379Z,6428.00
2018-05-09T12:01:04.382Z,6616.00
2018-05-09T12:02:04.402Z,6312.00
2018-05-09T12:03:04.426Z,6348.00
2018-05-09T12:04:04.435Z,6376.00
2018-05-09T12:05:04.451Z,6156.00
2018-05-09T12:06:04.455Z,6232.00
2018-05-09T12:07:04.462Z,6172.00
2018-05-09T12:08:04.489Z,4224.00
2018-05-09T12:09:04.507Z,6184.00
2018-05-09T12:10:04.509Z,6156.00
2018-05-09T12:11:04.534Z,6068.00
2018-05-09T12:12:04.536Z,6172.00
2018-05-09T12:13:04.563Z,6092.00
2018-05-09T12:14:04.566Z,6088.00
2018-05-09T12:15:04.594Z,5992.00